Brunswick, Indiana
Current Conditions -  °F | °C
As of 2:45 PM on Tuesday 27 Jan 2015 (Local Time) from KGYY Reporting Station
Few Clouds Few Clouds  
Wind Chill: 24°   Ceiling: Unl
Heat Index: 32°   Visibility: 10mi
Dew Point: 16°   Wind: 10mph
Humidity: 51%   Direction: 40°NE
Pressure: 30.2"   Gusts: NA
Location:  41.596°N, 87.4118°W
Report Text: KGYY 272045Z 04009KT 10SM FEW020 FEW250 00/M09 A3020
Loading
Personal Weather Stations






























Interactive Weather Map New forecast layout! Learn more

10-Day Weather Forecast

Advertisements
Track Severe Weather on mobile